sensor_id;sensor_type;location;lat;lon;timestamp;temperature;humidity
23311;DHT22;11828;51.508;18.118;2023-03-23T00:00:09;24.30;35.10
23311;DHT22;11828;51.508;18.118;2023-03-23T00:02:56;24.20;35.10
23311;DHT22;11828;51.508;18.118;2023-03-23T00:05:22;24.20;35.20
23311;DHT22;11828;51.508;18.118;2023-03-23T00:07:48;24.20;35.60
23311;DHT22;11828;51.508;18.118;2023-03-23T00:10:18;24.20;35.20
23311;DHT22;11828;51.508;18.118;2023-03-23T00:12:44;24.20;35.80
23311;DHT22;11828;51.508;18.118;2023-03-23T00:15:10;24.10;35.40
23311;DHT22;11828;51.508;18.118;2023-03-23T00:17:39;23.80;38.00
23311;DHT22;11828;51.508;18.118;2023-03-23T00:20:06;24.00;38.80
23311;DHT22;11828;51.508;18.118;2023-03-23T00:22:34;23.60;36.80
23311;DHT22;11828;51.508;18.118;2023-03-23T00:25:04;24.20;35.70
23311;DHT22;11828;51.508;18.118;2023-03-23T00:27:31;23.80;37.50
23311;DHT22;11828;51.508;18.118;2023-03-23T00:29:57;23.90;35.70
23311;DHT22;11828;51.508;18.118;2023-03-23T00:32:24;23.80;37.30
23311;DHT22;11828;51.508;18.118;2023-03-23T00:34:56;23.70;35.40
23311;DHT22;11828;51.508;18.118;2023-03-23T00:37:25;23.50;38.80
23311;DHT22;11828;51.508;18.118;2023-03-23T00:42:23;23.20;41.90
23311;DHT22;11828;51.508;18.118;2023-03-23T00:49:46;23.70;42.70
23311;DHT22;11828;51.508;18.118;2023-03-23T00:54:40;23.10;41.80
23311;DHT22;11828;51.508;18.118;2023-03-23T00:57:06;22.80;39.00
23311;DHT22;11828;51.508;18.118;2023-03-23T00:59:32;22.80;39.70
23311;DHT22;11828;51.508;18.118;2023-03-23T01:01:58;23.00;40.10
23311;DHT22;11828;51.508;18.118;2023-03-23T01:04:24;22.60;38.80
23311;DHT22;11828;51.508;18.118;2023-03-23T01:06:51;22.50;38.70
23311;DHT22;11828;51.508;18.118;2023-03-23T01:09:18;22.70;40.70
23311;DHT22;11828;51.508;18.118;2023-03-23T01:11:47;23.00;38.80
23311;DHT22;11828;51.508;18.118;2023-03-23T01:14:18;22.90;39.00
23311;DHT22;11828;51.508;18.118;2023-03-23T01:16:45;23.00;39.20
23311;DHT22;11828;51.508;18.118;2023-03-23T01:19:11;23.10;37.90
23311;DHT22;11828;51.508;18.118;2023-03-23T01:21:38;23.20;37.80
23311;DHT22;11828;51.508;18.118;2023-03-23T01:24:05;23.20;37.80
23311;DHT22;11828;51.508;18.118;2023-03-23T01:26:31;23.10;38.00
23311;DHT22;11828;51.508;18.118;2023-03-23T01:28:58;23.10;38.10
23311;DHT22;11828;51.508;18.118;2023-03-23T01:31:25;23.30;38.20
23311;DHT22;11828;51.508;18.118;2023-03-23T01:33:52;23.30;39.20
23311;DHT22;11828;51.508;18.118;2023-03-23T01:36:22;23.70;38.80
23311;DHT22;11828;51.508;18.118;2023-03-23T01:38:52;23.60;38.70
23311;DHT22;11828;51.508;18.118;2023-03-23T01:41:19;23.40;37.40
23311;DHT22;11828;51.508;18.118;2023-03-23T01:46:34;23.60;37.50
23311;DHT22;11828;51.508;18.118;2023-03-23T01:49:08;23.60;37.30
23311;DHT22;11828;51.508;18.118;2023-03-23T01:51:49;23.60;37.20
23311;DHT22;11828;51.508;18.118;2023-03-23T01:54:19;23.60;37.40
23311;DHT22;11828;51.508;18.118;2023-03-23T01:57:09;23.50;37.40
23311;DHT22;11828;51.508;18.118;2023-03-23T01:59:42;23.30;37.70
23311;DHT22;11828;51.508;18.118;2023-03-23T02:02:11;23.20;38.00
23311;DHT22;11828;51.508;18.118;2023-03-23T02:04:40;23.10;38.10
23311;DHT22;11828;51.508;18.118;2023-03-23T02:07:08;23.00;38.30
23311;DHT22;11828;51.508;18.118;2023-03-23T02:09:34;22.90;38.50
23311;DHT22;11828;51.508;18.118;2023-03-23T02:12:01;23.10;37.80
23311;DHT22;11828;51.508;18.118;2023-03-23T02:14:28;23.10;38.20
23311;DHT22;11828;51.508;18.118;2023-03-23T02:17:09;23.10;38.10
23311;DHT22;11828;51.508;18.118;2023-03-23T02:23:11;23.00;38.20
23311;DHT22;11828;51.508;18.118;2023-03-23T02:35:04;23.10;37.80
23311;DHT22;11828;51.508;18.118;2023-03-23T02:37:31;23.00;37.80
23311;DHT22;11828;51.508;18.118;2023-03-23T02:40:14;23.00;38.60
23311;DHT22;11828;51.508;18.118;2023-03-23T02:42:49;22.90;38.00
23311;DHT22;11828;51.508;18.118;2023-03-23T02:45:19;22.90;38.10
23311;DHT22;11828;51.508;18.118;2023-03-23T02:47:49;23.00;38.20
23311;DHT22;11828;51.508;18.118;2023-03-23T02:50:20;23.00;38.10
23311;DHT22;11828;51.508;18.118;2023-03-23T02:52:49;22.90;38.10
23311;DHT22;11828;51.508;18.118;2023-03-23T02:55:18;22.90;38.00
23311;DHT22;11828;51.508;18.118;2023-03-23T02:57:46;23.10;38.00
23311;DHT22;11828;51.508;18.118;2023-03-23T03:00:15;23.30;37.60
23311;DHT22;11828;51.508;18.118;2023-03-23T03:02:48;23.50;37.20
23311;DHT22;11828;51.508;18.118;2023-03-23T03:10:48;23.60;36.80
23311;DHT22;11828;51.508;18.118;2023-03-23T03:19:06;23.50;37.20
23311;DHT22;11828;51.508;18.118;2023-03-23T03:21:36;23.70;36.80
23311;DHT22;11828;51.508;18.118;2023-03-23T03:24:06;23.80;36.50
23311;DHT22;11828;51.508;18.118;2023-03-23T03:26:42;24.00;36.20
23311;DHT22;11828;51.508;18.118;2023-03-23T03:29:21;24.20;36.20
23311;DHT22;11828;51.508;18.118;2023-03-23T03:31:50;24.20;35.90
23311;DHT22;11828;51.508;18.118;2023-03-23T03:34:17;24.20;35.80
23311;DHT22;11828;51.508;18.118;2023-03-23T03:36:45;24.00;35.30
23311;DHT22;11828;51.508;18.118;2023-03-23T03:39:13;24.20;35.90
23311;DHT22;11828;51.508;18.118;2023-03-23T03:41:41;24.20;35.90
23311;DHT22;11828;51.508;18.118;2023-03-23T03:44:08;24.30;35.80
23311;DHT22;11828;51.508;18.118;2023-03-23T03:46:35;24.30;35.70
23311;DHT22;11828;51.508;18.118;2023-03-23T03:49:04;24.20;35.80
23311;DHT22;11828;51.508;18.118;2023-03-23T03:51:33;24.10;35.90
23311;DHT22;11828;51.508;18.118;2023-03-23T03:54:00;24.00;36.10
23311;DHT22;11828;51.508;18.118;2023-03-23T03:56:27;24.00;36.20
23311;DHT22;11828;51.508;18.118;2023-03-23T03:58:53;23.80;36.40
23311;DHT22;11828;51.508;18.118;2023-03-23T04:01:21;23.80;36.50
23311;DHT22;11828;51.508;18.118;2023-03-23T04:03:51;23.70;36.70
23311;DHT22;11828;51.508;18.118;2023-03-23T04:06:17;23.60;36.80
23311;DHT22;11828;51.508;18.118;2023-03-23T04:08:44;23.60;36.80
23311;DHT22;11828;51.508;18.118;2023-03-23T04:11:13;23.60;36.80
23311;DHT22;11828;51.508;18.118;2023-03-23T04:13:40;23.50;36.70
23311;DHT22;11828;51.508;18.118;2023-03-23T04:16:07;23.50;37.10
23311;DHT22;11828;51.508;18.118;2023-03-23T04:18:35;23.50;37.10
23311;DHT22;11828;51.508;18.118;2023-03-23T04:21:02;23.60;37.10
23311;DHT22;11828;51.508;18.118;2023-03-23T04:23:30;23.60;37.10
23311;DHT22;11828;51.508;18.118;2023-03-23T04:25:59;23.50;37.20
23311;DHT22;11828;51.508;18.118;2023-03-23T04:28:26;23.60;37.00
23311;DHT22;11828;51.508;18.118;2023-03-23T04:30:54;23.70;37.60
23311;DHT22;11828;51.508;18.118;2023-03-23T04:33:22;23.70;37.00
23311;DHT22;11828;51.508;18.118;2023-03-23T04:35:52;23.70;37.00
23311;DHT22;11828;51.508;18.118;2023-03-23T04:38:19;23.70;36.90
23311;DHT22;11828;51.508;18.118;2023-03-23T04:40:48;23.80;36.80
23311;DHT22;11828;51.508;18.118;2023-03-23T04:43:18;23.80;36.70
23311;DHT22;11828;51.508;18.118;2023-03-23T04:45:57;23.90;36.60
23311;DHT22;11828;51.508;18.118;2023-03-23T04:48:28;23.90;36.50
23311;DHT22;11828;51.508;18.118;2023-03-23T04:50:56;24.00;36.30
23311;DHT22;11828;51.508;18.118;2023-03-23T04:53:25;24.20;36.20
23311;DHT22;11828;51.508;18.118;2023-03-23T04:55:51;24.30;35.80
23311;DHT22;11828;51.508;18.118;2023-03-23T04:58:17;24.60;35.20
23311;DHT22;11828;51.508;18.118;2023-03-23T05:00:44;24.50;35.60
23311;DHT22;11828;51.508;18.118;2023-03-23T05:03:18;24.60;35.60
23311;DHT22;11828;51.508;18.118;2023-03-23T05:05:46;24.70;35.30
23311;DHT22;11828;51.508;18.118;2023-03-23T05:08:21;24.80;35.20
23311;DHT22;11828;51.508;18.118;2023-03-23T05:10:52;24.80;35.20
23311;DHT22;11828;51.508;18.118;2023-03-23T05:13:20;24.80;35.20
23311;DHT22;11828;51.508;18.118;2023-03-23T05:15:47;24.90;35.10
23311;DHT22;11828;51.508;18.118;2023-03-23T05:18:14;25.00;34.80
23311;DHT22;11828;51.508;18.118;2023-03-23T05:20:41;25.10;34.80
23311;DHT22;11828;51.508;18.118;2023-03-23T05:23:09;25.30;34.70
23311;DHT22;11828;51.508;18.118;2023-03-23T05:25:36;25.20;34.60
23311;DHT22;11828;51.508;18.118;2023-03-23T05:28:10;25.10;34.60
23311;DHT22;11828;51.508;18.118;2023-03-23T05:30:38;25.00;34.70
23311;DHT22;11828;51.508;18.118;2023-03-23T05:33:05;25.00;34.90
23311;DHT22;11828;51.508;18.118;2023-03-23T05:35:31;25.00;34.90
23311;DHT22;11828;51.508;18.118;2023-03-23T05:37:57;25.00;35.10
23311;DHT22;11828;51.508;18.118;2023-03-23T05:40:24;25.10;34.90
23311;DHT22;11828;51.508;18.118;2023-03-23T05:42:51;25.20;34.80
23311;DHT22;11828;51.508;18.118;2023-03-23T05:45:18;25.40;34.70
23311;DHT22;11828;51.508;18.118;2023-03-23T05:47:44;25.40;34.40
23311;DHT22;11828;51.508;18.118;2023-03-23T05:50:11;25.50;34.40
23311;DHT22;11828;51.508;18.118;2023-03-23T05:52:39;25.50;34.20
23311;DHT22;11828;51.508;18.118;2023-03-23T05:55:06;25.60;34.00
23311;DHT22;11828;51.508;18.118;2023-03-23T05:57:33;25.50;34.30
23311;DHT22;11828;51.508;18.118;2023-03-23T06:00:00;25.30;34.20
23311;DHT22;11828;51.508;18.118;2023-03-23T06:02:31;25.40;34.30
23311;DHT22;11828;51.508;18.118;2023-03-23T06:04:57;25.50;34.10
23311;DHT22;11828;51.508;18.118;2023-03-23T06:07:24;25.70;34.00
23311;DHT22;11828;51.508;18.118;2023-03-23T06:09:52;25.80;33.80
23311;DHT22;11828;51.508;18.118;2023-03-23T06:12:19;26.00;33.50
23311;DHT22;11828;51.508;18.118;2023-03-23T06:14:47;26.00;33.50
23311;DHT22;11828;51.508;18.118;2023-03-23T06:17:15;26.20;33.10
23311;DHT22;11828;51.508;18.118;2023-03-23T06:19:43;26.30;33.00
23311;DHT22;11828;51.508;18.118;2023-03-23T06:22:12;26.40;33.00
23311;DHT22;11828;51.508;18.118;2023-03-23T06:24:39;26.60;32.70
23311;DHT22;11828;51.508;18.118;2023-03-23T06:27:05;26.80;32.40
23311;DHT22;11828;51.508;18.118;2023-03-23T06:29:31;27.10;32.40
23311;DHT22;11828;51.508;18.118;2023-03-23T06:32:00;27.40;31.70
23311;DHT22;11828;51.508;18.118;2023-03-23T06:34:29;27.60;31.30
23311;DHT22;11828;51.508;18.118;2023-03-23T06:36:56;27.80;31.20
23311;DHT22;11828;51.508;18.118;2023-03-23T06:39:23;28.00;30.70
23311;DHT22;11828;51.508;18.118;2023-03-23T06:41:49;28.10;30.30
23311;DHT22;11828;51.508;18.118;2023-03-23T06:44:17;28.00;29.70
23311;DHT22;11828;51.508;18.118;2023-03-23T06:46:43;28.00;30.10
23311;DHT22;11828;51.508;18.118;2023-03-23T06:49:09;28.00;30.20
23311;DHT22;11828;51.508;18.118;2023-03-23T06:51:36;27.90;30.20
23311;DHT22;11828;51.508;18.118;2023-03-23T06:54:04;27.90;30.20
23311;DHT22;11828;51.508;18.118;2023-03-23T06:56:31;27.80;30.20
23311;DHT22;11828;51.508;18.118;2023-03-23T06:58:57;27.90;30.30
23311;DHT22;11828;51.508;18.118;2023-03-23T07:01:24;27.90;30.40
23311;DHT22;11828;51.508;18.118;2023-03-23T07:03:50;28.00;30.40
23311;DHT22;11828;51.508;18.118;2023-03-23T07:06:17;28.00;30.40
23311;DHT22;11828;51.508;18.118;2023-03-23T07:08:43;28.00;30.40
23311;DHT22;11828;51.508;18.118;2023-03-23T07:11:09;28.00;30.30
23311;DHT22;11828;51.508;18.118;2023-03-23T07:13:36;28.10;30.20
23311;DHT22;11828;51.508;18.118;2023-03-23T07:16:05;28.00;30.10
23311;DHT22;11828;51.508;18.118;2023-03-23T07:18:32;28.00;30.30
23311;DHT22;11828;51.508;18.118;2023-03-23T07:20:58;28.10;30.30
23311;DHT22;11828;51.508;18.118;2023-03-23T07:23:25;28.10;30.00
23311;DHT22;11828;51.508;18.118;2023-03-23T07:25:51;28.30;30.10
23311;DHT22;11828;51.508;18.118;2023-03-23T07:28:19;28.50;30.30
23311;DHT22;11828;51.508;18.118;2023-03-23T07:30:46;28.80;30.00
23311;DHT22;11828;51.508;18.118;2023-03-23T07:33:12;29.00;29.70
23311;DHT22;11828;51.508;18.118;2023-03-23T07:35:38;29.20;29.40
23311;DHT22;11828;51.508;18.118;2023-03-23T07:38:06;29.30;29.10
23311;DHT22;11828;51.508;18.118;2023-03-23T07:40:32;29.60;29.30
23311;DHT22;11828;51.508;18.118;2023-03-23T07:43:00;30.20;29.60
23311;DHT22;11828;51.508;18.118;2023-03-23T07:45:27;31.10;28.80
23311;DHT22;11828;51.508;18.118;2023-03-23T07:47:54;32.10;28.10
23311;DHT22;11828;51.508;18.118;2023-03-23T07:50:21;32.70;27.10
23311;DHT22;11828;51.508;18.118;2023-03-23T07:52:56;33.10;26.50
23311;DHT22;11828;51.508;18.118;2023-03-23T07:55:24;33.40;25.40
23311;DHT22;11828;51.508;18.118;2023-03-23T07:57:53;33.60;25.70
23311;DHT22;11828;51.508;18.118;2023-03-23T08:00:21;33.60;25.50
23311;DHT22;11828;51.508;18.118;2023-03-23T08:02:54;33.30;25.00
23311;DHT22;11828;51.508;18.118;2023-03-23T08:05:23;33.00;25.50
23311;DHT22;11828;51.508;18.118;2023-03-23T08:07:53;32.90;25.50
23311;DHT22;11828;51.508;18.118;2023-03-23T08:10:21;32.90;25.30
23311;DHT22;11828;51.508;18.118;2023-03-23T08:12:54;32.70;25.20
23311;DHT22;11828;51.508;18.118;2023-03-23T08:15:22;32.40;25.50
23311;DHT22;11828;51.508;18.118;2023-03-23T08:17:50;32.10;25.60
23311;DHT22;11828;51.508;18.118;2023-03-23T08:20:17;31.80;26.00
23311;DHT22;11828;51.508;18.118;2023-03-23T08:22:52;32.20;26.80
23311;DHT22;11828;51.508;18.118;2023-03-23T08:25:21;33.10;26.10
23311;DHT22;11828;51.508;18.118;2023-03-23T08:27:47;34.20;26.00
23311;DHT22;11828;51.508;18.118;2023-03-23T08:30:16;35.20;24.80
23311;DHT22;11828;51.508;18.118;2023-03-23T08:32:45;36.10;24.40
23311;DHT22;11828;51.508;18.118;2023-03-23T08:35:14;36.90;23.20
23311;DHT22;11828;51.508;18.118;2023-03-23T08:37:42;37.40;22.60
23311;DHT22;11828;51.508;18.118;2023-03-23T08:40:11;37.50;21.80
23311;DHT22;11828;51.508;18.118;2023-03-23T08:42:42;37.50;21.70
23311;DHT22;11828;51.508;18.118;2023-03-23T08:45:12;37.40;21.20
23311;DHT22;11828;51.508;18.118;2023-03-23T08:47:41;37.00;21.40
23311;DHT22;11828;51.508;18.118;2023-03-23T08:50:11;36.50;21.50
23311;DHT22;11828;51.508;18.118;2023-03-23T08:52:40;36.00;22.00
23311;DHT22;11828;51.508;18.118;2023-03-23T08:55:07;35.60;22.10
23311;DHT22;11828;51.508;18.118;2023-03-23T08:57:35;35.10;22.60
23311;DHT22;11828;51.508;18.118;2023-03-23T09:00:06;34.70;22.60
23311;DHT22;11828;51.508;18.118;2023-03-23T09:02:48;34.30;22.90
23311;DHT22;11828;51.508;18.118;2023-03-23T09:05:18;33.80;23.00
23311;DHT22;11828;51.508;18.118;2023-03-23T09:07:51;33.80;23.40
23311;DHT22;11828;51.508;18.118;2023-03-23T09:10:19;34.00;23.40
23311;DHT22;11828;51.508;18.118;2023-03-23T09:12:47;34.70;23.10
23311;DHT22;11828;51.508;18.118;2023-03-23T09:15:16;35.10;22.60
23311;DHT22;11828;51.508;18.118;2023-03-23T09:17:51;35.40;22.20
23311;DHT22;11828;51.508;18.118;2023-03-23T09:20:21;35.40;22.20
23311;DHT22;11828;51.508;18.118;2023-03-23T09:22:52;35.40;22.20
23311;DHT22;11828;51.508;18.118;2023-03-23T09:25:21;35.00;22.00
23311;DHT22;11828;51.508;18.118;2023-03-23T09:27:53;35.00;22.20
23311;DHT22;11828;51.508;18.118;2023-03-23T09:30:27;34.90;22.50
23311;DHT22;11828;51.508;18.118;2023-03-23T09:32:55;34.30;22.60
23311;DHT22;11828;51.508;18.118;2023-03-23T09:35:22;33.80;22.90
23311;DHT22;11828;51.508;18.118;2023-03-23T09:37:51;33.50;23.50
23311;DHT22;11828;51.508;18.118;2023-03-23T09:40:21;33.30;23.80
23311;DHT22;11828;51.508;18.118;2023-03-23T09:43:10;32.90;23.80
23311;DHT22;11828;51.508;18.118;2023-03-23T09:54:33;31.40;25.80
23311;DHT22;11828;51.508;18.118;2023-03-23T09:57:03;31.40;25.90
23311;DHT22;11828;51.508;18.118;2023-03-23T09:59:50;31.70;25.90
23311;DHT22;11828;51.508;18.118;2023-03-23T10:02:40;32.10;25.80
23311;DHT22;11828;51.508;18.118;2023-03-23T10:05:34;32.50;25.50
23311;DHT22;11828;51.508;18.118;2023-03-23T10:08:14;32.80;25.10
23311;DHT22;11828;51.508;18.118;2023-03-23T10:17:03;32.90;24.60
23311;DHT22;11828;51.508;18.118;2023-03-23T10:20:16;32.90;24.80
23311;DHT22;11828;51.508;18.118;2023-03-23T10:22:38;32.90;24.60
23311;DHT22;11828;51.508;18.118;2023-03-23T10:27:54;32.80;24.60
23311;DHT22;11828;51.508;18.118;2023-03-23T10:31:02;32.70;24.70
23311;DHT22;11828;51.508;18.118;2023-03-23T10:33:36;32.70;24.10
23311;DHT22;11828;51.508;18.118;2023-03-23T10:39:05;32.80;24.20
23311;DHT22;11828;51.508;18.118;2023-03-23T10:41:33;33.10;24.20
23311;DHT22;11828;51.508;18.118;2023-03-23T10:43:59;33.10;23.70
23311;DHT22;11828;51.508;18.118;2023-03-23T10:55:02;32.90;23.60
23311;DHT22;11828;51.508;18.118;2023-03-23T10:57:37;32.90;23.70
23311;DHT22;11828;51.508;18.118;2023-03-23T11:00:24;32.90;23.80
23311;DHT22;11828;51.508;18.118;2023-03-23T11:05:38;33.10;23.90
23311;DHT22;11828;51.508;18.118;2023-03-23T11:08:15;33.20;23.30
23311;DHT22;11828;51.508;18.118;2023-03-23T11:10:56;33.00;23.30
23311;DHT22;11828;51.508;18.118;2023-03-23T11:13:30;33.00;23.30
23311;DHT22;11828;51.508;18.118;2023-03-23T11:15:58;33.00;23.30
23311;DHT22;11828;51.508;18.118;2023-03-23T11:18:42;32.90;23.10
23311;DHT22;11828;51.508;18.118;2023-03-23T11:21:12;32.90;23.30
23311;DHT22;11828;51.508;18.118;2023-03-23T11:23:46;32.70;23.50
23311;DHT22;11828;51.508;18.118;2023-03-23T11:26:27;32.60;23.50
23311;DHT22;11828;51.508;18.118;2023-03-23T11:34:33;32.50;23.90
23311;DHT22;11828;51.508;18.118;2023-03-23T11:37:07;32.40;23.90
23311;DHT22;11828;51.508;18.118;2023-03-23T11:39:55;32.40;24.10
23311;DHT22;11828;51.508;18.118;2023-03-23T11:42:27;32.30;23.90
23311;DHT22;11828;51.508;18.118;2023-03-23T11:51:28;32.90;24.00
23311;DHT22;11828;51.508;18.118;2023-03-23T11:57:21;34.00;23.20
23311;DHT22;11828;51.508;18.118;2023-03-23T11:59:50;34.40;23.10
23311;DHT22;11828;51.508;18.118;2023-03-23T12:02:24;34.90;23.00
23311;DHT22;11828;51.508;18.118;2023-03-23T12:05:28;35.50;22.70
23311;DHT22;11828;51.508;18.118;2023-03-23T12:08:11;36.00;21.90
23311;DHT22;11828;51.508;18.118;2023-03-23T12:10:50;36.00;21.50
23311;DHT22;11828;51.508;18.118;2023-03-23T12:13:45;35.90;21.60
23311;DHT22;11828;51.508;18.118;2023-03-23T12:19:11;35.40;21.60
23311;DHT22;11828;51.508;18.118;2023-03-23T12:21:55;34.90;21.90
23311;DHT22;11828;51.508;18.118;2023-03-23T12:44:21;32.90;23.60
23311;DHT22;11828;51.508;18.118;2023-03-23T12:49:40;32.80;23.60
23311;DHT22;11828;51.508;18.118;2023-03-23T12:52:19;32.70;23.80
23311;DHT22;11828;51.508;18.118;2023-03-23T12:58:28;32.60;23.70
23311;DHT22;11828;51.508;18.118;2023-03-23T13:01:06;32.60;23.80
23311;DHT22;11828;51.508;18.118;2023-03-23T13:03:56;32.60;23.80
23311;DHT22;11828;51.508;18.118;2023-03-23T13:06:43;32.70;23.80
23311;DHT22;11828;51.508;18.118;2023-03-23T13:12:11;33.20;23.80
23311;DHT22;11828;51.508;18.118;2023-03-23T13:14:45;33.30;23.60
23311;DHT22;11828;51.508;18.118;2023-03-23T13:26:00;33.20;23.90
23311;DHT22;11828;51.508;18.118;2023-03-23T13:28:32;33.10;23.40
23311;DHT22;11828;51.508;18.118;2023-03-23T13:31:15;33.10;23.50
23311;DHT22;11828;51.508;18.118;2023-03-23T13:33:49;32.90;23.60
23311;DHT22;11828;51.508;18.118;2023-03-23T13:36:29;32.80;23.80
23311;DHT22;11828;51.508;18.118;2023-03-23T13:39:04;32.70;23.90
23311;DHT22;11828;51.508;18.118;2023-03-23T13:44:41;32.60;24.10
23311;DHT22;11828;51.508;18.118;2023-03-23T14:03:25;32.00;24.60
23311;DHT22;11828;51.508;18.118;2023-03-23T14:14:06;32.10;24.80
23311;DHT22;11828;51.508;18.118;2023-03-23T14:16:42;32.10;24.80
23311;DHT22;11828;51.508;18.118;2023-03-23T14:19:21;32.20;24.50
23311;DHT22;11828;51.508;18.118;2023-03-23T14:21:55;32.20;24.40
23311;DHT22;11828;51.508;18.118;2023-03-23T14:24:27;32.10;24.60
23311;DHT22;11828;51.508;18.118;2023-03-23T14:27:17;32.10;24.70
23311;DHT22;11828;51.508;18.118;2023-03-23T14:29:46;31.90;24.70
23311;DHT22;11828;51.508;18.118;2023-03-23T14:32:16;32.00;24.90
23311;DHT22;11828;51.508;18.118;2023-03-23T14:34:47;32.00;24.80
23311;DHT22;11828;51.508;18.118;2023-03-23T14:37:15;32.00;24.80
23311;DHT22;11828;51.508;18.118;2023-03-23T14:39:48;31.90;24.90
23311;DHT22;11828;51.508;18.118;2023-03-23T14:42:22;31.90;25.00
23311;DHT22;11828;51.508;18.118;2023-03-23T14:44:53;31.80;25.00
23311;DHT22;11828;51.508;18.118;2023-03-23T14:47:23;31.80;25.20
23311;DHT22;11828;51.508;18.118;2023-03-23T14:49:54;31.80;25.30
23311;DHT22;11828;51.508;18.118;2023-03-23T14:52:25;31.80;25.30
23311;DHT22;11828;51.508;18.118;2023-03-23T14:54:53;31.80;25.40
23311;DHT22;11828;51.508;18.118;2023-03-23T14:57:27;31.90;25.70
23311;DHT22;11828;51.508;18.118;2023-03-23T14:59:54;31.90;25.70
23311;DHT22;11828;51.508;18.118;2023-03-23T15:02:26;31.90;25.80
23311;DHT22;11828;51.508;18.118;2023-03-23T15:05:11;31.90;25.90
23311;DHT22;11828;51.508;18.118;2023-03-23T15:07:40;31.70;25.60
23311;DHT22;11828;51.508;18.118;2023-03-23T15:10:16;31.70;25.60
23311;DHT22;11828;51.508;18.118;2023-03-23T15:12:46;31.60;25.80
23311;DHT22;11828;51.508;18.118;2023-03-23T15:15:28;31.60;25.70
23311;DHT22;11828;51.508;18.118;2023-03-23T15:17:57;31.40;25.80
23311;DHT22;11828;51.508;18.118;2023-03-23T15:20:31;31.40;25.80
23311;DHT22;11828;51.508;18.118;2023-03-23T15:23:16;31.30;25.80
23311;DHT22;11828;51.508;18.118;2023-03-23T15:25:54;31.20;25.90
23311;DHT22;11828;51.508;18.118;2023-03-23T15:28:30;31.20;25.90
23311;DHT22;11828;51.508;18.118;2023-03-23T15:31:03;31.20;25.90
23311;DHT22;11828;51.508;18.118;2023-03-23T15:33:39;31.30;25.80
23311;DHT22;11828;51.508;18.118;2023-03-23T15:36:13;31.30;25.80
23311;DHT22;11828;51.508;18.118;2023-03-23T15:38:44;31.40;25.80
23311;DHT22;11828;51.508;18.118;2023-03-23T15:41:24;31.40;25.90
23311;DHT22;11828;51.508;18.118;2023-03-23T15:43:54;31.50;26.00
23311;DHT22;11828;51.508;18.118;2023-03-23T15:46:34;31.60;25.80
23311;DHT22;11828;51.508;18.118;2023-03-23T15:51:35;31.60;25.60
23311;DHT22;11828;51.508;18.118;2023-03-23T15:54:03;31.70;25.70
23311;DHT22;11828;51.508;18.118;2023-03-23T15:56:30;31.70;25.70
23311;DHT22;11828;51.508;18.118;2023-03-23T15:58:58;31.70;25.70
23311;DHT22;11828;51.508;18.118;2023-03-23T16:01:27;31.70;25.70
23311;DHT22;11828;51.508;18.118;2023-03-23T16:04:04;31.60;25.70
23311;DHT22;11828;51.508;18.118;2023-03-23T16:06:41;31.60;25.70
23311;DHT22;11828;51.508;18.118;2023-03-23T16:09:17;31.60;25.80
23311;DHT22;11828;51.508;18.118;2023-03-23T16:11:45;31.60;25.90
23311;DHT22;11828;51.508;18.118;2023-03-23T16:14:11;31.50;25.90
23311;DHT22;11828;51.508;18.118;2023-03-23T16:16:44;31.40;26.00
23311;DHT22;11828;51.508;18.118;2023-03-23T16:19:13;31.30;26.10
23311;DHT22;11828;51.508;18.118;2023-03-23T16:21:41;31.30;26.20
23311;DHT22;11828;51.508;18.118;2023-03-23T16:24:08;31.10;26.30
23311;DHT22;11828;51.508;18.118;2023-03-23T16:26:35;31.10;26.40
23311;DHT22;11828;51.508;18.118;2023-03-23T16:29:07;31.00;26.50
23311;DHT22;11828;51.508;18.118;2023-03-23T16:31:36;30.80;26.60
23311;DHT22;11828;51.508;18.118;2023-03-23T16:34:02;30.90;26.80
23311;DHT22;11828;51.508;18.118;2023-03-23T16:36:28;30.80;26.80
23311;DHT22;11828;51.508;18.118;2023-03-23T16:38:55;30.80;26.80
23311;DHT22;11828;51.508;18.118;2023-03-23T16:41:21;30.90;26.90
23311;DHT22;11828;51.508;18.118;2023-03-23T16:43:47;30.90;26.90
23311;DHT22;11828;51.508;18.118;2023-03-23T16:46:13;30.90;27.00
23311;DHT22;11828;51.508;18.118;2023-03-23T16:48:39;30.90;27.10
23311;DHT22;11828;51.508;18.118;2023-03-23T16:51:05;30.90;27.10
23311;DHT22;11828;51.508;18.118;2023-03-23T16:53:32;30.80;27.10
23311;DHT22;11828;51.508;18.118;2023-03-23T16:55:58;30.90;27.20
23311;DHT22;11828;51.508;18.118;2023-03-23T16:58:25;30.90;27.20
23311;DHT22;11828;51.508;18.118;2023-03-23T17:00:51;30.80;27.70
23311;DHT22;11828;51.508;18.118;2023-03-23T17:03:19;30.90;27.30
23311;DHT22;11828;51.508;18.118;2023-03-23T17:05:50;30.80;27.20
23311;DHT22;11828;51.508;18.118;2023-03-23T17:08:18;30.70;27.30
23311;DHT22;11828;51.508;18.118;2023-03-23T17:10:46;30.70;27.40
23311;DHT22;11828;51.508;18.118;2023-03-23T17:13:13;30.70;27.50
23311;DHT22;11828;51.508;18.118;2023-03-23T17:15:40;30.70;27.60
23311;DHT22;11828;51.508;18.118;2023-03-23T17:18:08;30.60;27.60
23311;DHT22;11828;51.508;18.118;2023-03-23T17:20:34;30.50;27.70
23311;DHT22;11828;51.508;18.118;2023-03-23T17:23:01;30.50;27.70
23311;DHT22;11828;51.508;18.118;2023-03-23T17:25:28;30.60;27.80
23311;DHT22;11828;51.508;18.118;2023-03-23T17:27:57;30.60;27.70
23311;DHT22;11828;51.508;18.118;2023-03-23T17:30:23;30.60;27.70
23311;DHT22;11828;51.508;18.118;2023-03-23T17:32:49;30.60;27.70
23311;DHT22;11828;51.508;18.118;2023-03-23T17:35:16;30.60;27.80
23311;DHT22;11828;51.508;18.118;2023-03-23T17:37:42;30.60;27.80
23311;DHT22;11828;51.508;18.118;2023-03-23T17:40:09;30.50;27.90
23311;DHT22;11828;51.508;18.118;2023-03-23T17:42:36;30.40;27.90
23311;DHT22;11828;51.508;18.118;2023-03-23T17:45:04;30.50;28.00
23311;DHT22;11828;51.508;18.118;2023-03-23T17:47:33;30.50;28.00
23311;DHT22;11828;51.508;18.118;2023-03-23T17:49:59;30.50;28.00
23311;DHT22;11828;51.508;18.118;2023-03-23T17:52:25;30.50;28.00
23311;DHT22;11828;51.508;18.118;2023-03-23T17:54:51;30.50;28.10
23311;DHT22;11828;51.508;18.118;2023-03-23T17:57:19;30.50;28.10
23311;DHT22;11828;51.508;18.118;2023-03-23T17:59:45;30.50;28.20
23311;DHT22;11828;51.508;18.118;2023-03-23T18:02:12;30.50;28.20
23311;DHT22;11828;51.508;18.118;2023-03-23T18:04:39;30.50;28.30
23311;DHT22;11828;51.508;18.118;2023-03-23T18:07:07;30.40;28.40
23311;DHT22;11828;51.508;18.118;2023-03-23T18:09:33;30.40;28.40